Time;durP1;ratioP1;P1;durP2;ratioP2;P2;SDS_P1;SDS_P2;PMS_P1;PMS_P2;Temp;Humidity;BMP_temperature;BMP_pressure;BME280_temperature;BME280_humidity;BME280_pressure;Samples;Min_cycle;Max_cycle;Signal;HPM_P1;HPM_P2
2022/10/14 00:01:30;;;;;;;9.03;8.30;;;;;;;12.85;61.85;93146.28;5070530;28;20182;-76
2022/10/14 00:03:55;;;;;;;9.33;8.83;;;;;;;12.86;62.03;93158.31;5069930;28;20229;-75
2022/10/14 00:06:24;;;;;;;9.20;8.63;;;;;;;12.81;62.86;93158.38;5069257;28;20265;-76
2022/10/14 00:08:49;;;;;;;9.80;9.20;;;;;;;12.78;62.89;93161.53;5069078;28;20213;-76
2022/10/14 00:11:21;;;;;;;9.90;9.30;;;;;;;12.68;63.23;93146.72;5070663;28;20189;-76
2022/10/14 00:13:47;;;;;;;10.17;9.60;;;;;;;12.62;64.66;93150.44;5070502;28;20232;-75
2022/10/14 00:16:19;;;;;;;9.93;9.37;;;;;;;12.54;64.84;93139.81;5070742;28;20197;-76
2022/10/14 00:18:46;;;;;;;9.87;9.27;;;;;;;12.60;65.01;93147.34;5069687;28;20249;-76
2022/10/14 00:21:12;;;;;;;10.20;9.40;;;;;;;12.47;65.20;93126.25;5070327;28;20193;-76
2022/10/14 00:23:37;;;;;;;10.37;9.70;;;;;;;12.51;65.96;93135.13;5070077;28;20307;-76
2022/10/14 00:26:03;;;;;;;10.80;10.13;;;;;;;12.51;65.71;93122.03;5070266;28;20178;-76
2022/10/14 00:28:28;;;;;;;10.13;9.53;;;;;;;12.37;66.16;93113.25;5069650;28;20236;-76
2022/10/14 00:31:01;;;;;;;10.67;10.00;;;;;;;12.22;66.04;93095.84;5069915;28;20276;-76
2022/10/14 00:33:27;;;;;;;10.60;9.53;;;;;;;12.53;65.61;93138.22;5067693;28;20235;-76
2022/10/14 00:35:59;;;;;;;9.50;8.87;;;;;;;12.62;65.76;93141.81;5068749;28;20260;-76
2022/10/14 00:38:25;;;;;;;10.07;9.27;;;;;;;12.42;65.35;93121.84;5068408;28;20221;-76
2022/10/14 00:40:52;;;;;;;9.70;8.90;;;;;;;12.35;65.73;93113.53;5069304;28;20196;-76
2022/10/14 00:43:18;;;;;;;10.60;10.00;;;;;;;12.53;65.68;93140.84;5068267;28;20221;-76
2022/10/14 00:45:44;;;;;;;9.80;9.17;;;;;;;12.45;66.29;93133.63;5069582;28;20202;-76
2022/10/14 00:48:11;;;;;;;10.13;9.47;;;;;;;12.44;66.06;93130.19;5068765;28;20236;-76
2022/10/14 00:50:40;;;;;;;10.17;9.57;;;;;;;12.35;66.15;93116.16;5068791;28;20220;-76
2022/10/14 00:53:07;;;;;;;10.73;10.13;;;;;;;12.61;65.62;93140.25;5068736;28;20230;-76
2022/10/14 00:55:32;;;;;;;9.70;9.07;;;;;;;12.63;65.83;93133.69;5069689;28;20169;-74
2022/10/14 00:57:58;;;;;;;10.60;9.80;;;;;;;12.59;66.26;93130.03;5068143;28;20243;-74
2022/10/14 01:00:23;;;;;;;10.87;10.17;;;;;;;12.47;66.20;93108.69;5068418;28;20193;-74
2022/10/14 01:02:49;;;;;;;10.33;9.73;;;;;;;12.47;66.70;93115.75;5068887;28;20185;-74
2022/10/14 01:05:18;;;;;;;9.97;9.47;;;;;;;12.40;67.35;93115.31;5068811;28;20185;-74
2022/10/14 01:07:53;;;;;;;10.90;9.87;;;;;;;12.42;67.03;93111.34;5067508;28;20232;-73
2022/10/14 01:11:08;;;;;;;11.03;10.00;;;;;;;12.41;67.12;93114.25;5083165;28;20232;-74
2022/10/14 01:13:39;;;;;;;10.33;9.73;;;;;;;12.33;67.53;93099.13;5032251;28;20353;-74
2022/10/14 01:16:24;;;;;;;10.57;9.80;;;;;;;12.37;67.37;93102.78;5032066;28;20245;-74
2022/10/14 01:18:56;;;;;;;11.50;10.67;;;;;;;12.40;67.13;93097.00;5058792;28;20282;-74
2022/10/14 01:21:51;;;;;;;10.53;9.93;;;;;;;12.40;68.20;93094.38;5065787;28;20200;-74
2022/10/14 01:24:43;;;;;;;10.50;9.80;;;;;;;12.35;68.29;93092.59;5066745;28;20218;-74
2022/10/14 01:27:17;;;;;;;9.47;8.83;;;;;;;12.39;69.07;93082.34;5068550;28;20194;-74
2022/10/14 01:30:01;;;;;;;9.83;9.33;;;;;;;12.35;70.26;93068.22;5068895;28;20225;-74
2022/10/14 01:32:37;;;;;;;10.27;9.47;;;;;;;12.23;70.17;93080.94;5068129;28;20199;-74
2022/10/14 01:35:27;;;;;;;9.93;9.33;;;;;;;12.18;70.99;93079.16;5048494;28;20205;-75
2022/10/14 01:38:09;;;;;;;9.37;8.87;;;;;;;12.06;71.61;93062.25;5047243;28;20200;-74
2022/10/14 01:40:42;;;;;;;9.57;8.97;;;;;;;12.16;70.93;93062.13;5041295;28;20197;-75
2022/10/14 01:43:12;;;;;;;9.13;8.73;;;;;;;12.20;72.15;93066.53;5047425;28;20221;-73
2022/10/14 01:45:42;;;;;;;9.23;8.83;;;;;;;12.21;72.96;93067.31;5069190;28;21793;-74
2022/10/14 01:48:10;;;;;;;9.40;8.90;;;;;;;12.20;73.47;93057.94;5067631;28;20217;-75
2022/10/14 01:50:38;;;;;;;8.53;8.13;;;;;;;12.25;73.23;93058.63;5068553;28;20235;-75
2022/10/14 01:53:13;;;;;;;9.50;9.10;;;;;;;12.32;73.74;93060.94;5068501;28;20328;-75
2022/10/14 01:55:43;;;;;;;8.63;8.30;;;;;;;12.17;74.10;93055.88;5068704;28;20181;-75
2022/10/14 01:58:11;;;;;;;9.77;9.30;;;;;;;12.24;74.21;93059.72;5068575;28;20244;-75
2022/10/14 02:00:37;;;;;;;8.40;8.00;;;;;;;12.31;74.08;93067.25;5069136;28;20184;-74
2022/10/14 02:03:02;;;;;;;9.67;8.97;;;;;;;12.33;73.84;93072.97;5068116;28;20238;-75
2022/10/14 02:05:42;;;;;;;9.13;8.67;;;;;;;12.32;73.90;93063.56;5068927;28;20189;-74
2022/10/14 02:08:28;;;;;;;9.50;9.10;;;;;;;12.29;74.21;93058.88;5067337;28;20233;-74
2022/10/14 02:11:08;;;;;;;8.67;8.27;;;;;;;12.34;74.26;93061.44;5067939;28;20228;-75
2022/10/14 02:13:49;;;;;;;8.80;8.30;;;;;;;12.33;74.80;93054.63;5068252;28;20278;-75
2022/10/14 02:16:40;;;;;;;9.43;8.90;;;;;;;12.14;75.49;93051.19;5068070;28;20197;-75
2022/10/14 02:19:34;;;;;;;9.17;8.77;;;;;;;12.15;75.80;93056.13;5067633;28;20229;-75
2022/10/14 02:22:14;;;;;;;9.50;8.90;;;;;;;12.09;75.87;93065.09;5059274;28;20263;-74
2022/10/14 02:24:42;;;;;;;8.83;8.17;;;;;;;12.24;75.00;93067.56;5067923;28;20237;-74
2022/10/14 02:27:12;;;;;;;10.30;9.70;;;;;;;12.35;74.48;93057.75;5070326;28;20193;-75
2022/10/14 02:29:41;;;;;;;9.03;8.63;;;;;;;12.48;74.27;93060.50;5070961;28;20225;-74
2022/10/14 02:32:09;;;;;;;9.20;8.70;;;;;;;12.14;75.70;93046.72;5072605;28;20201;-74
2022/10/14 02:34:36;;;;;;;8.80;8.50;;;;;;;12.31;75.37;93054.16;5071906;28;20252;-75
2022/10/14 02:37:03;;;;;;;9.33;8.83;;;;;;;12.10;77.21;93055.41;5072480;28;20208;-74
2022/10/14 02:39:41;;;;;;;8.67;8.27;;;;;;;12.05;77.47;93064.06;5070047;28;20245;-75
2022/10/14 02:42:07;;;;;;;9.47;9.07;;;;;;;12.06;77.02;93055.16;5071860;28;20188;-75
2022/10/14 02:44:32;;;;;;;9.63;9.03;;;;;;;12.01;77.62;93051.81;5072319;28;20202;-74
2022/10/14 02:46:57;;;;;;;9.97;9.37;;;;;;;11.93;78.04;93055.81;5072222;28;20270;-75
2022/10/14 02:49:23;;;;;;;10.07;9.33;;;;;;;11.97;77.75;93050.81;5070626;28;20293;-74
2022/10/14 02:51:48;;;;;;;9.57;9.07;;;;;;;11.85;78.28;93058.22;5072000;28;20191;-74
2022/10/14 02:54:14;;;;;;;9.33;8.87;;;;;;;11.78;78.60;93053.31;5071699;28;20250;-74
2022/10/14 02:56:39;;;;;;;9.53;9.03;;;;;;;11.85;78.65;93053.78;5072310;28;20189;-75
2022/10/14 02:59:05;;;;;;;10.17;9.63;;;;;;;11.83;78.68;93042.06;5071721;28;20225;-74
2022/10/14 03:01:31;;;;;;;10.50;9.80;;;;;;;11.93;78.49;93041.94;5070051;28;20216;-73
2022/10/14 03:03:56;;;;;;;10.30;9.70;;;;;;;11.89;78.61;93030.47;5071064;28;20241;-74
2022/10/14 03:06:22;;;;;;;10.27;9.77;;;;;;;11.86;78.92;93033.66;5071897;28;20185;-74
2022/10/14 03:08:47;;;;;;;10.47;9.97;;;;;;;11.74;79.36;93030.59;5071320;28;20223;-75
2022/10/14 03:11:12;;;;;;;11.17;10.47;;;;;;;11.77;79.62;93035.28;5071522;28;20262;-74
2022/10/14 03:13:38;;;;;;;9.63;9.03;;;;;;;11.83;79.54;93034.19;5071126;28;20289;-74
2022/10/14 03:16:03;;;;;;;11.23;10.53;;;;;;;11.91;79.08;93030.97;5071787;28;20208;-75
2022/10/14 03:18:29;;;;;;;10.73;10.23;;;;;;;11.85;79.07;93029.47;5071596;28;20225;-74
2022/10/14 03:20:54;;;;;;;11.10;10.50;;;;;;;11.78;79.49;93027.16;5071668;28;20198;-74
2022/10/14 03:23:20;;;;;;;11.13;10.53;;;;;;;11.72;79.90;93027.50;5070768;28;20254;-74
2022/10/14 03:25:45;;;;;;;11.13;10.47;;;;;;;11.79;80.39;93025.31;5071511;28;20189;-75
2022/10/14 03:28:11;;;;;;;10.63;10.13;;;;;;;11.68;80.43;93006.34;5071244;28;20237;-74
2022/10/14 03:30:36;;;;;;;10.57;9.97;;;;;;;11.83;79.44;93019.28;5071380;28;20239;-75
2022/10/14 03:33:02;;;;;;;10.57;10.07;;;;;;;11.74;80.02;93010.47;5070418;28;20248;-74
2022/10/14 03:35:27;;;;;;;10.60;9.80;;;;;;;11.81;80.11;93026.63;5070290;28;20193;-75
2022/10/14 03:37:53;;;;;;;12.50;11.70;;;;;;;11.90;79.68;93026.81;5070300;28;20189;-75
2022/10/14 03:40:19;;;;;;;10.07;9.47;;;;;;;11.88;79.69;93026.28;5071085;28;20175;-75
2022/10/14 03:42:44;;;;;;;10.77;10.07;;;;;;;11.86;80.25;93020.56;5070583;28;20197;-74
2022/10/14 03:45:10;;;;;;;10.83;10.33;;;;;;;11.76;80.59;93007.56;5071192;28;20219;-75
2022/10/14 03:47:35;;;;;;;10.10;9.40;;;;;;;11.93;79.15;93007.94;5069326;28;20190;-77
2022/10/14 03:50:03;;;;;;;10.27;9.80;;;;;;;11.89;80.16;93007.69;5069242;28;20323;-72
2022/10/14 03:52:28;;;;;;;10.13;9.60;;;;;;;12.02;79.50;93011.50;5068323;28;20249;-73
2022/10/14 03:54:53;;;;;;;11.63;10.93;;;;;;;12.16;78.73;93007.16;5050027;28;20229;-72
2022/10/14 03:57:19;;;;;;;11.20;10.60;;;;;;;11.99;80.30;93019.91;5056175;28;20255;-72
2022/10/14 03:59:44;;;;;;;11.67;10.97;;;;;;;11.84;81.58;93022.69;5049119;28;20237;-71
2022/10/14 04:02:09;;;;;;;11.73;11.03;;;;;;;11.68;82.21;93013.38;5048042;28;20217;-71
2022/10/14 04:04:35;;;;;;;11.57;10.90;;;;;;;11.43;83.45;93018.78;5048799;28;20243;-71
2022/10/14 04:07:00;;;;;;;11.83;11.13;;;;;;;11.39;84.12;93019.34;5049523;28;20194;-72
2022/10/14 04:09:27;;;;;;;11.17;10.67;;;;;;;11.35;84.41;93020.94;5048484;28;20299;-76
2022/10/14 04:11:54;;;;;;;11.90;10.93;;;;;;;11.20;85.21;93010.63;5050341;28;20205;-74
2022/10/14 04:14:19;;;;;;;12.73;12.10;;;;;;;11.28;84.93;93006.63;5062173;28;20286;-73
2022/10/14 04:16:44;;;;;;;12.17;11.50;;;;;;;11.35;85.33;93015.72;5069428;28;20195;-73
2022/10/14 04:19:10;;;;;;;11.20;10.43;;;;;;;11.23;85.77;93006.66;5068349;28;20241;-72
2022/10/14 04:21:35;;;;;;;11.03;10.43;;;;;;;11.22;85.63;93002.50;5070114;28;20256;-73
2022/10/14 04:24:00;;;;;;;12.33;11.53;;;;;;;11.17;85.61;93000.69;5069343;28;20225;-74
2022/10/14 04:26:26;;;;;;;13.37;12.47;;;;;;;11.17;85.28;92992.84;5070017;28;20209;-74
2022/10/14 04:28:51;;;;;;;12.80;12.10;;;;;;;11.31;85.10;93008.69;5068888;28;20242;-74
2022/10/14 04:31:17;;;;;;;12.43;11.53;;;;;;;11.29;84.67;93003.75;5068831;28;20213;-74
2022/10/14 04:33:42;;;;;;;11.67;11.07;;;;;;;11.37;84.45;93005.00;5070077;28;20244;-77
2022/10/14 04:36:08;;;;;;;12.63;11.83;;;;;;;11.51;84.00;93002.53;5069292;28;20206;-77
2022/10/14 04:38:33;;;;;;;13.27;12.47;;;;;;;11.54;84.33;92991.50;5069561;28;20224;-77
2022/10/14 04:40:59;;;;;;;13.80;12.70;;;;;;;11.45;84.70;92998.38;5067622;28;20188;-75
2022/10/14 04:43:24;;;;;;;12.80;12.00;;;;;;;11.24;85.76;92995.16;5068488;28;20236;-74
2022/10/14 04:45:50;;;;;;;13.20;12.40;;;;;;;11.11;86.53;92991.31;5068841;28;20197;-74
2022/10/14 04:48:17;;;;;;;13.03;12.23;;;;;;;11.13;86.37;92994.44;5066899;28;20244;-75
2022/10/14 04:50:42;;;;;;;13.90;13.00;;;;;;;11.18;86.58;92997.03;5066608;28;20917;-73
2022/10/14 04:53:08;;;;;;;14.10;13.10;;;;;;;11.15;86.34;92994.97;5067023;28;20316;-75
2022/10/14 04:55:34;;;;;;;13.40;12.50;;;;;;;11.33;84.29;92983.84;5065838;28;20438;-73
2022/10/14 04:57:59;;;;;;;12.40;11.70;;;;;;;11.48;83.15;93000.47;5067047;28;20290;-73
2022/10/14 05:00:24;;;;;;;11.63;11.03;;;;;;;11.70;81.57;92996.38;5067820;28;20185;-73
2022/10/14 05:02:50;;;;;;;12.57;11.83;;;;;;;11.67;82.42;92988.31;5067800;28;20185;-73
2022/10/14 05:05:15;;;;;;;12.70;11.90;;;;;;;11.61;82.18;92995.38;5068043;28;20197;-73
2022/10/14 05:07:41;;;;;;;12.77;11.93;;;;;;;11.64;82.06;92988.84;5067877;28;20186;-74
2022/10/14 05:10:09;;;;;;;12.60;11.80;;;;;;;11.56;82.90;92982.34;5068168;28;20237;-74
2022/10/14 05:12:36;;;;;;;12.13;11.33;;;;;;;11.43;83.34;92962.06;5068165;28;20194;-73
2022/10/14 05:15:02;;;;;;;13.67;12.67;;;;;;;11.38;84.18;92975.16;5067424;28;20260;-74
2022/10/14 05:17:27;;;;;;;11.80;11.10;;;;;;;11.38;83.06;92960.28;5067466;28;20187;-75
2022/10/14 05:19:53;;;;;;;12.80;11.60;;;;;;;11.57;82.08;92972.66;5065795;28;20245;-75
2022/10/14 05:22:18;;;;;;;11.37;10.77;;;;;;;11.73;81.10;92974.13;5067927;28;20184;-75
2022/10/14 05:24:44;;;;;;;10.20;9.60;;;;;;;11.84;77.98;92972.97;5067878;28;20275;-75
2022/10/14 05:27:09;;;;;;;10.47;9.97;;;;;;;11.77;76.65;92943.72;5067649;28;20213;-77
2022/10/14 05:29:34;;;;;;;9.00;8.60;;;;;;;11.96;76.75;92960.28;5065793;28;20231;-77
2022/10/14 05:32:00;;;;;;;10.10;9.27;;;;;;;12.15;77.29;92985.47;5065644;28;20258;-77
2022/10/14 05:34:25;;;;;;;10.13;9.47;;;;;;;12.04;76.58;92947.38;5066365;28;20232;-77
2022/10/14 05:36:50;;;;;;;9.80;9.20;;;;;;;12.34;74.65;92983.66;5067879;28;20227;-81
2022/10/14 05:39:16;;;;;;;10.10;9.60;;;;;;;12.55;73.73;92990.25;5068136;28;20280;-77
2022/10/14 05:41:41;;;;;;;9.53;9.13;;;;;;;12.39;73.97;92985.47;5068348;28;20196;-74
2022/10/14 05:44:10;;;;;;;10.37;9.77;;;;;;;12.67;72.76;92992.44;5066229;28;20210;-76
2022/10/14 05:46:35;;;;;;;9.93;9.03;;;;;;;12.64;71.68;92993.78;5067746;28;20190;-75
2022/10/14 05:49:04;;;;;;;11.33;10.47;;;;;;;12.86;72.13;92985.38;5067201;28;20233;-76
2022/10/14 05:51:31;;;;;;;10.70;9.93;;;;;;;12.83;72.16;92996.44;5067248;28;20201;-76
2022/10/14 05:53:57;;;;;;;10.47;9.97;;;;;;;12.91;72.07;92995.78;5066105;28;20217;-76
2022/10/14 05:56:23;;;;;;;10.97;10.37;;;;;;;13.03;72.03;92993.56;5067278;28;20208;-76
2022/10/14 05:58:48;;;;;;;10.87;10.10;;;;;;;12.84;71.49;92972.56;5063501;28;20235;-75
2022/10/14 06:01:14;;;;;;;13.43;12.43;;;;;;;13.26;70.88;93005.03;5065394;28;20185;-75
2022/10/14 06:03:39;;;;;;;11.13;10.53;;;;;;;13.39;71.01;93007.72;5071070;28;20241;-77
2022/10/14 06:06:05;;;;;;;11.07;10.17;;;;;;;13.36;69.67;92999.63;5071716;28;20201;-75
2022/10/14 06:08:31;;;;;;;10.20;9.70;;;;;;;13.59;69.63;93012.66;5063965;28;20237;-76
2022/10/14 06:10:57;;;;;;;11.20;10.50;;;;;;;13.70;70.08;93011.41;5051408;28;20240;-78
2022/10/14 06:13:22;;;;;;;11.57;10.73;;;;;;;13.63;72.35;93023.34;5050881;28;20241;-77
2022/10/14 06:15:48;;;;;;;11.37;10.77;;;;;;;13.39;73.25;93031.31;5051782;28;20184;-75
2022/10/14 06:18:14;;;;;;;11.47;10.77;;;;;;;13.01;73.55;92966.88;5056894;28;20248;-74
2022/10/14 06:20:39;;;;;;;10.47;9.97;;;;;;;13.34;73.08;93028.75;5071980;28;20201;-75
2022/10/14 06:23:05;;;;;;;12.70;11.93;;;;;;;13.13;73.89;93006.53;5070017;28;20222;-75
2022/10/14 06:25:31;;;;;;;12.03;11.00;;;;;;;13.30;74.32;93034.88;5071275;28;20193;-74
2022/10/14 06:28:04;;;;;;;11.83;11.13;;;;;;;13.03;75.01;93026.88;5071309;28;20221;-76
2022/10/14 06:30:31;;;;;;;10.90;10.30;;;;;;;13.07;75.31;93031.25;5069967;28;20296;-75
2022/10/14 06:32:57;;;;;;;11.50;10.83;;;;;;;13.12;74.89;93041.66;5070627;28;20240;-74
2022/10/14 06:35:23;;;;;;;12.33;11.57;;;;;;;13.21;74.70;93032.13;5071189;28;20192;-74
2022/10/14 06:37:48;;;;;;;12.27;11.27;;;;;;;13.18;74.41;93026.66;5070789;28;20185;-74
2022/10/14 06:40:14;;;;;;;11.30;10.70;;;;;;;13.30;73.55;93022.53;5071552;28;20189;-75
2022/10/14 06:42:40;;;;;;;11.10;10.50;;;;;;;13.26;73.58;93026.78;5070062;28;20194;-75
2022/10/14 06:45:06;;;;;;;11.97;11.27;;;;;;;13.34;73.80;93028.75;5071084;28;20216;-74
2022/10/14 06:47:32;;;;;;;12.13;11.43;;;;;;;13.42;73.75;93041.25;5071524;28;20197;-76
2022/10/14 06:49:58;;;;;;;11.40;10.60;;;;;;;13.56;73.14;93042.06;5070576;28;20273;-76
2022/10/14 06:52:24;;;;;;;11.40;10.53;;;;;;;13.63;73.22;93042.50;5071041;28;20189;-75
2022/10/14 06:54:49;;;;;;;12.30;11.33;;;;;;;13.69;73.04;93030.88;5070496;28;20237;-75
2022/10/14 06:57:15;;;;;;;12.10;11.30;;;;;;;13.50;73.45;93009.13;5069034;28;20219;-73
2022/10/14 06:59:41;;;;;;;11.83;10.93;;;;;;;13.67;72.66;93016.47;5070934;28;20244;-75
2022/10/14 07:02:08;;;;;;;12.60;11.70;;;;;;;13.91;72.60;93031.03;5071051;28;20196;-75
2022/10/14 07:04:34;;;;;;;11.77;10.97;;;;;;;13.87;72.31;93032.66;5070250;28;20241;-75
2022/10/14 07:07:01;;;;;;;10.77;10.10;;;;;;;13.70;72.19;93011.41;5071447;28;20185;-75
2022/10/14 07:09:28;;;;;;;12.33;11.53;;;;;;;13.88;71.88;93026.34;5070510;28;20352;-75
2022/10/14 07:11:54;;;;;;;11.60;10.90;;;;;;;13.94;71.78;93016.53;5070638;28;20245;-76
2022/10/14 07:14:20;;;;;;;12.37;11.40;;;;;;;13.97;71.66;93029.09;5068443;28;20374;-76
2022/10/14 07:16:46;;;;;;;12.10;11.20;;;;;;;13.89;71.74;93016.63;5071435;28;20201;-77
2022/10/14 07:19:12;;;;;;;12.43;11.67;;;;;;;13.97;71.70;93026.47;5070873;28;20209;-76
2022/10/14 07:21:38;;;;;;;11.47;10.70;;;;;;;14.04;72.41;93032.09;5071443;28;20272;-77
2022/10/14 07:24:05;;;;;;;12.47;11.23;;;;;;;13.89;70.97;93003.50;5058256;28;20289;-76
2022/10/14 07:26:32;;;;;;;11.10;10.30;;;;;;;13.92;71.27;93026.53;5050578;28;20233;-75
2022/10/14 07:28:58;;;;;;;12.07;11.17;;;;;;;13.92;71.18;93026.53;5042378;28;20238;-70
2022/10/14 07:31:25;;;;;;;12.13;11.43;;;;;;;13.89;71.41;93035.78;5041526;28;20189;-71
2022/10/14 07:33:51;;;;;;;11.70;10.90;;;;;;;13.81;70.90;93036.44;5047290;28;20336;-70
2022/10/14 07:36:18;;;;;;;12.47;11.47;;;;;;;13.97;70.45;93036.97;5050466;28;20192;-70
2022/10/14 07:38:45;;;;;;;12.57;11.77;;;;;;;13.82;71.28;93030.09;5045186;28;20230;-68
2022/10/14 07:41:17;;;;;;;11.37;10.57;;;;;;;13.87;70.45;93043.16;5042879;28;20216;-70
2022/10/14 07:43:57;;;;;;;13.07;11.87;;;;;;;14.00;69.87;93039.81;5046463;28;20304;-70
2022/10/14 07:46:42;;;;;;;11.37;10.57;;;;;;;13.93;69.52;93036.75;5051196;28;21023;-68
2022/10/14 07:49:17;;;;;;;11.80;11.10;;;;;;;13.89;69.11;93035.00;5046009;28;20225;-69
2022/10/14 07:51:44;;;;;;;11.80;11.10;;;;;;;13.86;68.20;93025.06;5041772;28;20229;-70
2022/10/14 07:54:14;;;;;;;11.77;10.87;;;;;;;13.80;68.59;93027.03;5060663;28;20252;-70
2022/10/14 07:56:47;;;;;;;12.60;11.80;;;;;;;13.91;68.79;93032.88;5070023;28;20267;-69
2022/10/14 07:59:14;;;;;;;12.43;11.43;;;;;;;13.99;67.94;93040.09;5055849;28;21095;-70
2022/10/14 08:01:41;;;;;;;12.07;11.27;;;;;;;13.97;68.42;93037.75;5050190;28;20229;-71
2022/10/14 08:04:10;;;;;;;13.07;12.13;;;;;;;14.04;68.10;93022.41;5045760;28;20234;-70
2022/10/14 08:06:36;;;;;;;11.63;10.83;;;;;;;14.34;67.16;93027.16;5049080;28;20220;-71
2022/10/14 08:09:07;;;;;;;11.20;10.50;;;;;;;14.39;66.03;93027.06;5046221;28;20242;-70
2022/10/14 08:11:33;;;;;;;10.57;9.97;;;;;;;14.35;66.03;93033.94;5050011;28;20277;-71
2022/10/14 08:13:59;;;;;;;12.37;11.60;;;;;;;14.58;65.71;93041.94;5048523;28;20241;-71
2022/10/14 08:16:31;;;;;;;10.67;10.07;;;;;;;14.58;65.54;93042.72;5042114;28;20187;-71
2022/10/14 08:19:00;;;;;;;11.73;10.93;;;;;;;14.46;64.94;93030.06;5056368;28;20229;-71
2022/10/14 08:21:27;;;;;;;10.20;9.70;;;;;;;14.42;64.74;93031.72;5062959;28;20223;-70
2022/10/14 08:23:53;;;;;;;11.13;10.13;;;;;;;14.61;64.58;93047.41;5059784;28;20230;-69
2022/10/14 08:26:26;;;;;;;11.43;10.73;;;;;;;14.60;63.36;93053.72;5061106;28;20190;-70
2022/10/14 08:28:53;;;;;;;11.13;10.40;;;;;;;14.56;63.42;93042.22;5061280;28;20244;-70
2022/10/14 08:31:19;;;;;;;10.13;9.57;;;;;;;14.65;63.05;93043.09;5066116;28;20265;-69
2022/10/14 08:33:46;;;;;;;11.67;10.97;;;;;;;14.78;62.04;93046.81;5064301;28;20714;-69
2022/10/14 08:36:16;;;;;;;10.50;10.00;;;;;;;14.71;62.13;93033.28;5060601;28;20197;-70
2022/10/14 08:38:45;;;;;;;10.00;9.37;;;;;;;14.84;61.75;93043.78;5062705;28;20306;-69
2022/10/14 08:41:11;;;;;;;9.40;8.90;;;;;;;14.91;59.05;93051.28;5083261;28;20217;-70
2022/10/14 08:44:02;;;;;;;9.67;9.07;;;;;;;15.02;59.53;93053.41;5060887;28;20286;-70
2022/10/14 08:46:49;;;;;;;9.63;8.93;;;;;;;15.06;59.66;93050.97;5061665;28;20213;-70
2022/10/14 08:50:08;;;;;;;11.00;10.40;;;;;;;15.09;58.92;93053.00;5061818;28;20233;-68
2022/10/14 08:52:44;;;;;;;10.30;9.80;;;;;;;15.05;58.76;93063.31;5009112;28;20201;-70
2022/10/14 08:55:19;;;;;;;9.93;9.10;;;;;;;15.05;59.16;93063.31;5062877;28;20213;-70
2022/10/14 08:57:55;;;;;;;9.93;9.43;;;;;;;15.10;59.01;93057.97;5059388;28;20205;-70
2022/10/14 09:00:24;;;;;;;10.10;9.57;;;;;;;15.08;58.85;93061.97;5058932;28;20181;-69
2022/10/14 09:02:51;;;;;;;10.13;9.53;;;;;;;15.04;57.40;93045.22;5063203;28;20181;-69
2022/10/14 09:05:24;;;;;;;10.43;9.73;;;;;;;15.19;58.81;93052.81;5060275;28;20179;-70
2022/10/14 09:07:54;;;;;;;9.43;8.83;;;;;;;15.08;58.03;93051.47;5060728;28;20185;-70
2022/10/14 09:10:38;;;;;;;10.57;9.80;;;;;;;15.09;58.26;93064.31;5067351;28;21084;-70
2022/10/14 09:13:18;;;;;;;10.20;9.67;;;;;;;15.23;55.54;93056.41;5067096;28;20243;-69
2022/10/14 09:15:59;;;;;;;9.70;9.20;;;;;;;15.22;56.36;93057.47;5068293;28;20212;-69
2022/10/14 09:18:35;;;;;;;9.80;9.27;;;;;;;15.32;55.87;93054.63;5067678;28;20217;-71
2022/10/14 09:21:08;;;;;;;10.00;9.50;;;;;;;15.36;52.97;93047.69;5068524;28;20701;-71
2022/10/14 09:23:36;;;;;;;9.57;9.17;;;;;;;15.26;52.76;93047.91;5067337;28;20240;-69
2022/10/14 09:26:10;;;;;;;9.37;8.90;;;;;;;15.12;54.32;93047.16;5067534;28;20185;-70
2022/10/14 09:28:42;;;;;;;9.53;8.83;;;;;;;15.17;54.34;93044.44;5067572;28;20338;-71
2022/10/14 09:31:11;;;;;;;10.10;9.60;;;;;;;15.36;53.44;93047.69;5067883;28;20206;-68
2022/10/14 09:33:38;;;;;;;9.70;9.10;;;;;;;15.37;53.30;93033.47;5067005;28;20237;-67
2022/10/14 09:36:31;;;;;;;9.47;8.97;;;;;;;15.43;52.99;93045.47;5066799;28;20196;-67
2022/10/14 09:38:57;;;;;;;8.97;8.43;;;;;;;15.55;53.31;93053.59;5051091;28;20233;-68
2022/10/14 09:41:29;;;;;;;10.03;9.53;;;;;;;15.41;52.57;93042.38;5067826;28;20260;-68
2022/10/14 09:44:20;;;;;;;9.77;9.27;;;;;;;15.57;53.00;93046.97;5067061;28;20221;-67
2022/10/14 09:46:53;;;;;;;9.70;9.10;;;;;;;15.61;52.79;93055.81;5067233;28;20213;-68
2022/10/14 09:49:49;;;;;;;10.13;9.53;;;;;;;15.61;53.95;93049.81;5066762;28;20241;-67
2022/10/14 09:52:25;;;;;;;9.67;9.07;;;;;;;15.35;52.98;93040.88;5066013;28;20190;-67
2022/10/14 09:54:57;;;;;;;10.33;9.73;;;;;;;15.58;53.53;93050.41;5067263;28;20208;-68
2022/10/14 09:57:25;;;;;;;10.07;9.57;;;;;;;15.66;53.61;93049.66;5068047;28;20189;-66
2022/10/14 10:00:06;;;;;;;12.30;9.10;;;;;;;15.71;52.17;93050.34;5067432;28;20217;-70
2022/10/14 10:02:45;;;;;;;9.47;8.87;;;;;;;15.64;51.38;93054.47;5068699;28;20197;-66
2022/10/14 10:05:24;;;;;;;9.50;9.03;;;;;;;15.34;50.94;93044.56;5047577;28;20214;-66
2022/10/14 10:08:25;;;;;;;9.17;8.57;;;;;;;15.38;52.22;93050.81;5047141;28;20205;-66
2022/10/14 10:11:04;;;;;;;9.43;9.00;;;;;;;15.35;50.90;93054.03;5030354;28;20239;-67
2022/10/14 10:13:47;;;;;;;10.67;10.07;;;;;;;15.25;52.65;93049.75;5043725;28;20257;-67
2022/10/14 10:16:33;;;;;;;10.37;9.77;;;;;;;15.22;51.27;93049.59;5042830;28;20182;-66
2022/10/14 10:19:22;;;;;;;9.57;8.97;;;;;;;15.07;51.46;93036.72;5044288;28;20222;-66
2022/10/14 10:21:48;;;;;;;9.53;9.03;;;;;;;15.26;49.95;93037.38;5048194;28;20214;-67
2022/10/14 10:24:22;;;;;;;9.93;9.43;;;;;;;15.25;48.88;93041.84;5041745;28;20226;-66
2022/10/14 10:26:48;;;;;;;8.83;8.43;;;;;;;15.35;49.79;93036.38;5040627;28;20199;-66
2022/10/14 10:29:34;;;;;;;9.43;8.97;;;;;;;15.55;50.85;93037.81;5045074;28;21040;-67
2022/10/14 10:32:31;;;;;;;9.40;8.80;;;;;;;15.64;48.91;93033.41;5047716;28;20190;-67
2022/10/14 10:35:13;;;;;;;10.20;8.93;;;;;;;15.49;50.32;93026.63;5066312;28;20225;-66
2022/10/14 10:37:55;;;;;;;9.70;9.20;;;;;;;15.57;49.13;93027.78;5066313;28;20189;-67
2022/10/14 10:40:20;;;;;;;9.40;9.00;;;;;;;15.78;49.01;93029.63;5067088;28;20189;-67
2022/10/14 10:43:07;;;;;;;8.67;7.97;;;;;;;15.82;47.62;93024.56;5067230;28;20212;-67
2022/10/14 10:46:10;;;;;;;9.07;8.67;;;;;;;15.77;48.60;93019.41;5067715;28;20197;-67
2022/10/14 10:48:50;;;;;;;9.50;9.00;;;;;;;15.65;48.36;93011.28;5068426;28;20239;-67
2022/10/14 10:52:10;;;;;;;10.17;9.47;;;;;;;15.65;49.09;93019.94;5070118;28;20280;-67
2022/10/14 10:55:15;;;;;;;9.60;9.07;;;;;;;15.47;49.23;93014.88;4964262;28;20336;-68
2022/10/14 10:58:25;;;;;;;8.67;8.27;;;;;;;15.32;45.65;93015.94;5050535;28;20194;-67
2022/10/14 11:01:00;;;;;;;9.73;9.13;;;;;;;15.28;44.74;93016.84;5047812;28;20198;-66
2022/10/14 11:03:42;;;;;;;9.37;8.93;;;;;;;15.19;46.64;93015.97;5047377;28;20234;-67
2022/10/14 11:12:01;;;;;;;9.40;9.00;;;;;;;15.35;46.79;93014.56;5043804;28;20217;-66
2022/10/14 11:12:14;;;;;;;8.13;7.73;;;;;;;15.51;45.07;93007.91;5062089;28;20251;-68
2022/10/14 11:14:51;;;;;;;8.57;8.27;;;;;;;15.39;44.40;93002.41;5070227;28;20289;-66
2022/10/14 11:17:32;;;;;;;9.03;8.60;;;;;;;15.43;43.00;93000.72;5071291;28;20189;-66
2022/10/14 11:19:58;;;;;;;8.87;8.47;;;;;;;15.52;42.15;92996.31;5070796;28;20233;-67
2022/10/14 11:22:29;;;;;;;9.13;8.63;;;;;;;15.61;42.84;92997.91;5070315;28;20258;-67
2022/10/14 11:25:06;;;;;;;9.67;9.17;;;;;;;15.46;44.40;92994.88;5070733;28;20240;-69
2022/10/14 11:27:46;;;;;;;9.67;9.20;;;;;;;15.36;43.51;92979.28;5070972;28;20204;-69
2022/10/14 11:30:28;;;;;;;9.20;8.80;;;;;;;15.44;40.94;92971.47;5068105;28;20221;-69
2022/10/14 11:33:12;;;;;;;8.93;8.53;;;;;;;15.52;41.71;92977.88;5063648;28;20186;-69
2022/10/14 11:36:01;;;;;;;8.90;8.30;;;;;;;15.71;41.10;92965.31;5040407;28;20213;-70
2022/10/14 11:38:53;;;;;;;8.53;8.13;;;;;;;15.53;41.07;92961.78;5044703;28;20249;-69
2022/10/14 11:41:28;;;;;;;8.40;8.00;;;;;;;15.75;39.41;92961.03;5049585;28;20191;-70
2022/10/14 11:43:56;;;;;;;7.90;7.60;;;;;;;15.60;40.75;92958.75;5060693;28;20258;-68
2022/10/14 11:46:26;;;;;;;8.87;8.43;;;;;;;15.53;40.80;92959.16;5070368;28;20249;-69